sensor_id;sensor_type;location;lat;lon;timestamp;pressure;altitude;pressure_sealevel;temperature;humidity
55418;BME280;41287;47.554;7.844;2023-10-08T00:00:24;99000.50;;;21.28;49.96
55418;BME280;41287;47.554;7.844;2023-10-08T00:03:11;98995.84;;;21.28;50.04
55418;BME280;41287;47.554;7.844;2023-10-08T00:05:41;98999.34;;;21.29;49.97
55418;BME280;41287;47.554;7.844;2023-10-08T00:08:07;98989.59;;;21.28;50.04
55418;BME280;41287;47.554;7.844;2023-10-08T00:10:38;99003.22;;;21.28;49.77
55418;BME280;41287;47.554;7.844;2023-10-08T00:13:11;99000.16;;;21.29;49.82
55418;BME280;41287;47.554;7.844;2023-10-08T00:15:43;98994.25;;;21.27;49.80
55418;BME280;41287;47.554;7.844;2023-10-08T00:18:21;99000.50;;;21.28;50.08
55418;BME280;41287;47.554;7.844;2023-10-08T00:20:48;98993.88;;;21.29;49.92
55418;BME280;41287;47.554;7.844;2023-10-08T00:23:32;98991.97;;;21.29;49.80
55418;BME280;41287;47.554;7.844;2023-10-08T00:26:02;98996.63;;;21.29;49.83
55418;BME280;41287;47.554;7.844;2023-10-08T00:28:29;98998.56;;;21.28;49.95
55418;BME280;41287;47.554;7.844;2023-10-08T00:30:58;98997.78;;;21.28;49.87
55418;BME280;41287;47.554;7.844;2023-10-08T00:33:31;98997.41;;;21.29;49.93
55418;BME280;41287;47.554;7.844;2023-10-08T00:35:56;98999.34;;;21.29;49.92
55418;BME280;41287;47.554;7.844;2023-10-08T00:38:21;98997.78;;;21.28;49.81
55418;BME280;41287;47.554;7.844;2023-10-08T00:40:49;99002.06;;;21.29;49.97
55418;BME280;41287;47.554;7.844;2023-10-08T00:43:33;98991.84;;;21.26;49.88
55418;BME280;41287;47.554;7.844;2023-10-08T00:46:03;98991.16;;;21.29;49.87
55418;BME280;41287;47.554;7.844;2023-10-08T00:48:29;98994.69;;;21.29;49.93
55418;BME280;41287;47.554;7.844;2023-10-08T00:51:02;98990.03;;;21.30;49.90
55418;BME280;41287;47.554;7.844;2023-10-08T00:53:46;98985.72;;;21.29;50.00
55418;BME280;41287;47.554;7.844;2023-10-08T00:56:15;98983.78;;;21.29;50.13
55418;BME280;41287;47.554;7.844;2023-10-08T00:58:44;98983.00;;;21.29;49.94
55418;BME280;41287;47.554;7.844;2023-10-08T01:01:16;98982.22;;;21.28;50.14
55418;BME280;41287;47.554;7.844;2023-10-08T01:03:42;98979.50;;;21.28;50.01
55418;BME280;41287;47.554;7.844;2023-10-08T01:06:11;98980.25;;;21.29;49.90
55418;BME280;41287;47.554;7.844;2023-10-08T01:08:37;98980.25;;;21.29;50.13
55418;BME280;41287;47.554;7.844;2023-10-08T01:11:22;98970.03;;;21.26;50.24
55418;BME280;41287;47.554;7.844;2023-10-08T01:13:58;98974.81;;;21.29;49.90
55418;BME280;41287;47.554;7.844;2023-10-08T01:16:25;98978.34;;;21.29;49.97
55418;BME280;41287;47.554;7.844;2023-10-08T01:18:53;98974.03;;;21.28;50.01
55418;BME280;41287;47.554;7.844;2023-10-08T01:21:19;98972.44;;;21.27;49.98
55418;BME280;41287;47.554;7.844;2023-10-08T01:24:05;98971.31;;;21.28;50.19
55418;BME280;41287;47.554;7.844;2023-10-08T01:26:36;98969.34;;;21.29;50.11
55418;BME280;41287;47.554;7.844;2023-10-08T01:29:09;98963.91;;;21.29;50.03
55418;BME280;41287;47.554;7.844;2023-10-08T01:31:38;98960.41;;;21.28;49.86
55418;BME280;41287;47.554;7.844;2023-10-08T01:34:03;98966.63;;;21.29;50.13
55418;BME280;41287;47.554;7.844;2023-10-08T01:36:31;98961.19;;;21.29;50.17
55418;BME280;41287;47.554;7.844;2023-10-08T01:38:57;98959.25;;;21.29;50.12
55418;BME280;41287;47.554;7.844;2023-10-08T01:41:23;98959.25;;;21.29;50.20
55418;BME280;41287;47.554;7.844;2023-10-08T01:43:58;98959.25;;;21.29;50.08
55418;BME280;41287;47.554;7.844;2023-10-08T01:46:24;98958.44;;;21.29;50.03
55418;BME280;41287;47.554;7.844;2023-10-08T01:48:52;98957.69;;;21.28;50.07
55418;BME280;41287;47.554;7.844;2023-10-08T01:51:29;98959.25;;;21.29;49.94
55418;BME280;41287;47.554;7.844;2023-10-08T01:54:02;98966.63;;;21.29;49.90
55418;BME280;41287;47.554;7.844;2023-10-08T01:56:29;98954.97;;;21.28;50.19
55418;BME280;41287;47.554;7.844;2023-10-08T01:58:56;98949.94;;;21.31;50.22
55418;BME280;41287;47.554;7.844;2023-10-08T02:01:22;98945.63;;;21.29;50.12
55418;BME280;41287;47.554;7.844;2023-10-08T02:03:47;98945.63;;;21.29;49.99
55418;BME280;41287;47.554;7.844;2023-10-08T02:06:13;98944.81;;;21.29;50.07
55418;BME280;41287;47.554;7.844;2023-10-08T02:08:38;98938.25;;;21.30;49.93
55418;BME280;41287;47.554;7.844;2023-10-08T02:11:04;98938.59;;;21.28;50.25
55418;BME280;41287;47.554;7.844;2023-10-08T02:13:29;98933.16;;;21.28;49.99
55418;BME280;41287;47.554;7.844;2023-10-08T02:15:55;98938.59;;;21.28;50.14
55418;BME280;41287;47.554;7.844;2023-10-08T02:18:21;98940.97;;;21.30;50.08
55418;BME280;41287;47.554;7.844;2023-10-08T02:20:50;98949.94;;;21.31;50.20
55418;BME280;41287;47.554;7.844;2023-10-08T02:23:17;98946.44;;;21.30;50.26
55418;BME280;41287;47.554;7.844;2023-10-08T02:25:43;98950.28;;;21.29;50.28
55418;BME280;41287;47.554;7.844;2023-10-08T02:28:10;98946.44;;;21.30;50.14
55418;BME280;41287;47.554;7.844;2023-10-08T02:30:41;98940.97;;;21.30;50.18
55418;BME280;41287;47.554;7.844;2023-10-08T02:33:06;98942.91;;;21.29;50.27
55418;BME280;41287;47.554;7.844;2023-10-08T02:35:44;98945.63;;;21.29;50.29
55418;BME280;41287;47.554;7.844;2023-10-08T02:38:11;98937.44;;;21.29;50.20
55418;BME280;41287;47.554;7.844;2023-10-08T02:40:43;98937.44;;;21.29;50.00
55418;BME280;41287;47.554;7.844;2023-10-08T02:43:21;98942.91;;;21.29;50.09
55418;BME280;41287;47.554;7.844;2023-10-08T02:45:47;98940.16;;;21.29;50.05
55418;BME280;41287;47.554;7.844;2023-10-08T02:48:14;98934.72;;;21.29;50.11
55418;BME280;41287;47.554;7.844;2023-10-08T02:50:41;98944.06;;;21.28;50.21
55418;BME280;41287;47.554;7.844;2023-10-08T02:53:07;98942.91;;;21.29;50.09
55418;BME280;41287;47.554;7.844;2023-10-08T02:55:43;98940.97;;;21.30;50.22
55418;BME280;41287;47.554;7.844;2023-10-08T02:58:14;98942.91;;;21.29;50.19
55418;BME280;41287;47.554;7.844;2023-10-08T03:00:45;98937.81;;;21.28;50.22
55418;BME280;41287;47.554;7.844;2023-10-08T03:03:15;98939.38;;;21.29;50.13
55418;BME280;41287;47.554;7.844;2023-10-08T03:05:51;98935.41;;;21.26;50.34
55418;BME280;41287;47.554;7.844;2023-10-08T03:08:18;98935.88;;;21.28;50.32
55418;BME280;41287;47.554;7.844;2023-10-08T03:10:49;98941.31;;;21.28;50.36
55418;BME280;41287;47.554;7.844;2023-10-08T03:13:23;98929.63;;;21.28;50.15
55418;BME280;41287;47.554;7.844;2023-10-08T03:15:51;98933.91;;;21.29;50.08
55418;BME280;41287;47.554;7.844;2023-10-08T03:18:25;98937.44;;;21.29;50.36
55418;BME280;41287;47.554;7.844;2023-10-08T03:20:50;98932.00;;;21.29;50.25
55418;BME280;41287;47.554;7.844;2023-10-08T03:23:17;98924.16;;;21.28;50.20
55418;BME280;41287;47.554;7.844;2023-10-08T03:25:53;98934.28;;;21.27;50.13
55418;BME280;41287;47.554;7.844;2023-10-08T03:28:27;98938.59;;;21.28;50.48
55418;BME280;41287;47.554;7.844;2023-10-08T03:30:56;98935.88;;;21.28;50.21
55418;BME280;41287;47.554;7.844;2023-10-08T03:33:30;98935.06;;;21.28;50.40
55418;BME280;41287;47.554;7.844;2023-10-08T03:36:00;98938.59;;;21.28;50.33
55418;BME280;41287;47.554;7.844;2023-10-08T03:38:31;98942.91;;;21.29;50.30
55418;BME280;41287;47.554;7.844;2023-10-08T03:41:10;98940.16;;;21.29;50.42
55418;BME280;41287;47.554;7.844;2023-10-08T03:43:42;98938.59;;;21.28;50.41
55418;BME280;41287;47.554;7.844;2023-10-08T03:46:27;98934.72;;;21.29;50.29
55418;BME280;41287;47.554;7.844;2023-10-08T03:48:52;98934.28;;;21.27;50.12
55418;BME280;41287;47.554;7.844;2023-10-08T03:51:18;98925.75;;;21.29;50.32
55418;BME280;41287;47.554;7.844;2023-10-08T03:53:46;98929.63;;;21.28;50.17
55418;BME280;41287;47.554;7.844;2023-10-08T03:56:28;98934.28;;;21.27;50.30
55418;BME280;41287;47.554;7.844;2023-10-08T03:58:56;98937.81;;;21.28;50.20
55418;BME280;41287;47.554;7.844;2023-10-08T04:01:25;98924.97;;;21.28;50.22
55418;BME280;41287;47.554;7.844;2023-10-08T04:03:55;98923.38;;;21.27;50.40
55418;BME280;41287;47.554;7.844;2023-10-08T04:06:27;98928.81;;;21.27;50.28
55418;BME280;41287;47.554;7.844;2023-10-08T04:09:01;98929.63;;;21.28;50.31
55418;BME280;41287;47.554;7.844;2023-10-08T04:11:37;98933.16;;;21.28;50.40
55418;BME280;41287;47.554;7.844;2023-10-08T04:14:12;98930.44;;;21.28;50.30
55418;BME280;41287;47.554;7.844;2023-10-08T04:16:39;98923.38;;;21.27;50.41
55418;BME280;41287;47.554;7.844;2023-10-08T04:19:05;98929.63;;;21.28;50.45
55418;BME280;41287;47.554;7.844;2023-10-08T04:21:30;98928.81;;;21.27;50.33
55418;BME280;41287;47.554;7.844;2023-10-08T04:23:59;98924.16;;;21.28;50.49
55418;BME280;41287;47.554;7.844;2023-10-08T04:26:28;98918.72;;;21.28;50.45
55418;BME280;41287;47.554;7.844;2023-10-08T04:28:56;98921.44;;;21.28;50.45
55418;BME280;41287;47.554;7.844;2023-10-08T04:31:27;98920.81;;;21.22;50.56
55418;BME280;41287;47.554;7.844;2023-10-08T04:34:05;98924.97;;;21.28;50.25
55418;BME280;41287;47.554;7.844;2023-10-08T04:36:36;98926.91;;;21.28;50.45
55418;BME280;41287;47.554;7.844;2023-10-08T04:39:07;98922.25;;;21.28;50.42
55418;BME280;41287;47.554;7.844;2023-10-08T04:41:40;98931.53;;;21.27;50.34
55418;BME280;41287;47.554;7.844;2023-10-08T04:44:08;98929.63;;;21.28;50.27
55418;BME280;41287;47.554;7.844;2023-10-08T04:46:40;98928.81;;;21.27;50.48
55418;BME280;41287;47.554;7.844;2023-10-08T04:49:12;98929.94;;;21.26;50.40
55418;BME280;41287;47.554;7.844;2023-10-08T04:51:57;98927.22;;;21.26;50.37
55418;BME280;41287;47.554;7.844;2023-10-08T04:54:26;98930.75;;;21.27;50.44
55418;BME280;41287;47.554;7.844;2023-10-08T04:57:01;98924.50;;;21.26;50.44
55418;BME280;41287;47.554;7.844;2023-10-08T04:59:30;98928.34;;;21.25;50.55
55418;BME280;41287;47.554;7.844;2023-10-08T05:02:04;98929.16;;;21.26;50.46
55418;BME280;41287;47.554;7.844;2023-10-08T05:04:47;98936.19;;;21.27;50.27
55418;BME280;41287;47.554;7.844;2023-10-08T05:07:34;98938.91;;;21.27;50.42
55418;BME280;41287;47.554;7.844;2023-10-08T05:10:13;98939.72;;;21.27;50.49
55418;BME280;41287;47.554;7.844;2023-10-08T05:12:53;98935.41;;;21.26;50.50
55418;BME280;41287;47.554;7.844;2023-10-08T05:15:33;98932.66;;;21.26;50.44
55418;BME280;41287;47.554;7.844;2023-10-08T05:18:04;98949.81;;;21.27;50.37
55418;BME280;41287;47.554;7.844;2023-10-08T05:20:39;98949.03;;;21.26;50.55
55418;BME280;41287;47.554;7.844;2023-10-08T05:23:15;98946.31;;;21.26;50.45
55418;BME280;41287;47.554;7.844;2023-10-08T05:25:50;98941.66;;;21.27;50.58
55418;BME280;41287;47.554;7.844;2023-10-08T05:28:26;98942.78;;;21.26;50.45
55418;BME280;41287;47.554;7.844;2023-10-08T05:30:52;98944.38;;;21.27;50.59
55418;BME280;41287;47.554;7.844;2023-10-08T05:33:37;98953.69;;;21.26;50.66
55418;BME280;41287;47.554;7.844;2023-10-08T05:36:25;98953.69;;;21.26;50.53
55418;BME280;41287;47.554;7.844;2023-10-08T05:38:59;98956.41;;;21.26;50.44
55418;BME280;41287;47.554;7.844;2023-10-08T05:41:43;98970.84;;;21.26;50.42
55418;BME280;41287;47.554;7.844;2023-10-08T05:44:29;98974.69;;;21.25;50.51
55418;BME280;41287;47.554;7.844;2023-10-08T05:47:04;98974.69;;;21.25;50.45
55418;BME280;41287;47.554;7.844;2023-10-08T05:49:51;98969.22;;;21.25;50.43
55418;BME280;41287;47.554;7.844;2023-10-08T05:52:40;98972.75;;;21.26;50.58
55418;BME280;41287;47.554;7.844;2023-10-08T05:55:23;98982.72;;;21.22;50.66
55418;BME280;41287;47.554;7.844;2023-10-08T05:57:58;98976.28;;;21.26;50.49
55418;BME280;41287;47.554;7.844;2023-10-08T06:00:51;98968.09;;;21.26;50.36
55418;BME280;41287;47.554;7.844;2023-10-08T06:03:19;98961.06;;;21.25;50.32
55418;BME280;41287;47.554;7.844;2023-10-08T06:05:59;98969.22;;;21.25;50.43
55418;BME280;41287;47.554;7.844;2023-10-08T06:08:48;98970.03;;;21.26;50.56
55418;BME280;41287;47.554;7.844;2023-10-08T06:11:29;98978.53;;;21.24;50.49
55418;BME280;41287;47.554;7.844;2023-10-08T06:14:07;98973.88;;;21.25;50.64
55418;BME280;41287;47.554;7.844;2023-10-08T06:16:42;98981.25;;;21.24;50.47
55418;BME280;41287;47.554;7.844;2023-10-08T06:19:10;98980.13;;;21.25;50.48
55418;BME280;41287;47.554;7.844;2023-10-08T06:21:37;98978.22;;;21.26;50.43
55418;BME280;41287;47.554;7.844;2023-10-08T06:24:04;98975.47;;;21.26;50.56
55418;BME280;41287;47.554;7.844;2023-10-08T06:26:41;98968.44;;;21.25;50.59
55418;BME280;41287;47.554;7.844;2023-10-08T06:29:14;98963.78;;;21.25;50.53
55418;BME280;41287;47.554;7.844;2023-10-08T06:31:56;98966.81;;;21.24;50.52
55418;BME280;41287;47.554;7.844;2023-10-08T06:34:23;98975.47;;;21.26;50.52
55418;BME280;41287;47.554;7.844;2023-10-08T06:36:53;98972.75;;;21.26;50.31
55418;BME280;41287;47.554;7.844;2023-10-08T06:39:23;98978.53;;;21.24;50.25
55418;BME280;41287;47.554;7.844;2023-10-08T06:41:58;98984.47;;;21.26;50.35
55418;BME280;41287;47.554;7.844;2023-10-08T06:44:24;98984.47;;;21.26;50.41
55418;BME280;41287;47.554;7.844;2023-10-08T06:46:49;98978.22;;;21.26;50.39
55418;BME280;41287;47.554;7.844;2023-10-08T06:49:19;98991.03;;;21.25;50.57
55418;BME280;41287;47.554;7.844;2023-10-08T06:51:49;98989.91;;;21.26;50.64
55418;BME280;41287;47.554;7.844;2023-10-08T06:54:15;98993.75;;;21.25;50.48
55418;BME280;41287;47.554;7.844;2023-10-08T06:56:42;98991.03;;;21.25;50.42
55418;BME280;41287;47.554;7.844;2023-10-08T06:59:17;98998.41;;;21.25;50.31
55418;BME280;41287;47.554;7.844;2023-10-08T07:01:43;98992.16;;;21.24;50.53
55418;BME280;41287;47.554;7.844;2023-10-08T07:04:11;98988.31;;;21.25;50.53
55418;BME280;41287;47.554;7.844;2023-10-08T07:06:39;98982.84;;;21.25;50.41
55418;BME280;41287;47.554;7.844;2023-10-08T07:09:05;98982.06;;;21.25;50.33
55418;BME280;41287;47.554;7.844;2023-10-08T07:11:32;98975.81;;;21.24;50.55
55418;BME280;41287;47.554;7.844;2023-10-08T07:14:03;98983.97;;;21.24;50.53
55418;BME280;41287;47.554;7.844;2023-10-08T07:16:30;98980.13;;;21.25;50.52
55418;BME280;41287;47.554;7.844;2023-10-08T07:18:56;98971.47;;;21.23;50.28
55418;BME280;41287;47.554;7.844;2023-10-08T07:21:27;98979.34;;;21.25;50.42
55418;BME280;41287;47.554;7.844;2023-10-08T07:24:09;98983.97;;;21.24;50.58
55418;BME280;41287;47.554;7.844;2023-10-08T07:26:40;98981.25;;;21.24;50.58
55418;BME280;41287;47.554;7.844;2023-10-08T07:29:06;98983.97;;;21.24;50.44
55418;BME280;41287;47.554;7.844;2023-10-08T07:31:36;98986.72;;;21.24;50.63
55418;BME280;41287;47.554;7.844;2023-10-08T07:34:03;98990.25;;;21.25;50.54
55418;BME280;41287;47.554;7.844;2023-10-08T07:36:47;98988.97;;;21.22;50.47
55418;BME280;41287;47.554;7.844;2023-10-08T07:39:14;98996.00;;;21.23;50.38
55418;BME280;41287;47.554;7.844;2023-10-08T07:42:02;99000.34;;;21.24;50.50
55418;BME280;41287;47.554;7.844;2023-10-08T07:44:30;98997.63;;;21.24;50.66
55418;BME280;41287;47.554;7.844;2023-10-08T07:46:56;98994.88;;;21.24;50.33
55418;BME280;41287;47.554;7.844;2023-10-08T07:49:24;98994.09;;;21.24;50.32
55418;BME280;41287;47.554;7.844;2023-10-08T07:51:57;98998.72;;;21.23;50.68
55418;BME280;41287;47.554;7.844;2023-10-08T07:54:24;99001.47;;;21.23;50.57
55418;BME280;41287;47.554;7.844;2023-10-08T07:56:53;98998.72;;;21.23;50.65
55418;BME280;41287;47.554;7.844;2023-10-08T07:59:25;98998.72;;;21.23;50.49
55418;BME280;41287;47.554;7.844;2023-10-08T08:01:50;98996.38;;;21.22;50.51
55418;BME280;41287;47.554;7.844;2023-10-08T08:04:20;99006.91;;;21.23;50.57
55418;BME280;41287;47.554;7.844;2023-10-08T08:06:51;99002.59;;;21.22;50.34
55418;BME280;41287;47.554;7.844;2023-10-08T08:09:18;98994.41;;;21.22;50.31
55418;BME280;41287;47.554;7.844;2023-10-08T08:11:48;98999.84;;;21.22;50.36
55418;BME280;41287;47.554;7.844;2023-10-08T08:14:15;99006.13;;;21.23;50.46
55418;BME280;41287;47.554;7.844;2023-10-08T08:16:43;98997.94;;;21.23;50.47
55418;BME280;41287;47.554;7.844;2023-10-08T08:19:11;98999.84;;;21.22;50.32
55418;BME280;41287;47.554;7.844;2023-10-08T08:21:38;98996.38;;;21.22;50.26
55418;BME280;41287;47.554;7.844;2023-10-08T08:24:03;99001.81;;;21.22;50.45
55418;BME280;41287;47.554;7.844;2023-10-08T08:26:31;99000.66;;;21.23;50.39
55418;BME280;41287;47.554;7.844;2023-10-08T08:29:05;99002.59;;;21.22;50.26
55418;BME280;41287;47.554;7.844;2023-10-08T08:31:34;99010.75;;;21.22;50.56
55418;BME280;41287;47.554;7.844;2023-10-08T08:34:01;99014.63;;;21.21;50.16
55418;BME280;41287;47.554;7.844;2023-10-08T08:36:29;99003.75;;;21.21;50.33
55418;BME280;41287;47.554;7.844;2023-10-08T08:38:57;99009.50;;;21.20;50.55
55418;BME280;41287;47.554;7.844;2023-10-08T08:41:25;99008.38;;;21.21;50.42
55418;BME280;41287;47.554;7.844;2023-10-08T08:43:52;99007.25;;;21.22;50.35
55418;BME280;41287;47.554;7.844;2023-10-08T08:46:32;99012.25;;;21.20;50.38
55418;BME280;41287;47.554;7.844;2023-10-08T08:49:04;99004.22;;;21.15;50.56
55418;BME280;41287;47.554;7.844;2023-10-08T08:51:30;99008.38;;;21.21;50.25
55418;BME280;41287;47.554;7.844;2023-10-08T08:53:56;99011.91;;;21.21;50.30
55418;BME280;41287;47.554;7.844;2023-10-08T08:56:21;99004.88;;;21.20;50.21
55418;BME280;41287;47.554;7.844;2023-10-08T08:58:49;99004.88;;;21.20;50.05
55418;BME280;41287;47.554;7.844;2023-10-08T09:01:16;99007.59;;;21.20;50.36
55418;BME280;41287;47.554;7.844;2023-10-08T09:03:43;99002.94;;;21.21;50.21
55418;BME280;41287;47.554;7.844;2023-10-08T09:06:08;99004.06;;;21.20;50.10
55418;BME280;41287;47.554;7.844;2023-10-08T09:08:34;98999.72;;;21.19;50.19
55418;BME280;41287;47.554;7.844;2023-10-08T09:11:00;99001.81;;;21.22;50.07
55418;BME280;41287;47.554;7.844;2023-10-08T09:13:27;98995.56;;;21.21;50.33
55418;BME280;41287;47.554;7.844;2023-10-08T09:15:57;99000.22;;;21.21;50.21
55418;BME280;41287;47.554;7.844;2023-10-08T09:18:28;98998.28;;;21.21;50.30
55418;BME280;41287;47.554;7.844;2023-10-08T09:20:54;98996.69;;;21.20;50.27
55418;BME280;41287;47.554;7.844;2023-10-08T09:23:20;98998.28;;;21.21;50.33
55418;BME280;41287;47.554;7.844;2023-10-08T09:25:47;99000.22;;;21.21;50.25
55418;BME280;41287;47.554;7.844;2023-10-08T09:28:17;98998.59;;;21.20;50.25
55418;BME280;41287;47.554;7.844;2023-10-08T09:30:43;99004.53;;;21.22;50.12
55418;BME280;41287;47.554;7.844;2023-10-08T09:33:12;98995.88;;;21.20;50.21
55418;BME280;41287;47.554;7.844;2023-10-08T09:35:38;98994.28;;;21.19;50.19
55418;BME280;41287;47.554;7.844;2023-10-08T09:38:04;98995.88;;;21.20;50.33
55418;BME280;41287;47.554;7.844;2023-10-08T09:40:30;98996.69;;;21.20;50.31
55418;BME280;41287;47.554;7.844;2023-10-08T09:42:59;98988.50;;;21.20;50.07
55418;BME280;41287;47.554;7.844;2023-10-08T09:45:25;98997.47;;;21.21;50.16
55418;BME280;41287;47.554;7.844;2023-10-08T09:47:54;98995.88;;;21.20;50.13
55418;BME280;41287;47.554;7.844;2023-10-08T09:50:30;98991.56;;;21.19;49.91
55418;BME280;41287;47.554;7.844;2023-10-08T09:53:04;98995.09;;;21.19;49.85
55418;BME280;41287;47.554;7.844;2023-10-08T09:55:33;98997.81;;;21.19;49.98
55418;BME280;41287;47.554;7.844;2023-10-08T09:57:59;98999.84;;;21.22;50.15
55418;BME280;41287;47.554;7.844;2023-10-08T10:00:26;98997.13;;;21.22;50.16
55418;BME280;41287;47.554;7.844;2023-10-08T10:02:59;98997.13;;;21.22;50.17
55418;BME280;41287;47.554;7.844;2023-10-08T10:05:30;98996.38;;;21.22;50.24
55418;BME280;41287;47.554;7.844;2023-10-08T10:07:55;98997.94;;;21.23;50.27
55418;BME280;41287;47.554;7.844;2023-10-08T10:10:29;98999.09;;;21.22;50.07
55418;BME280;41287;47.554;7.844;2023-10-08T10:13:03;98991.69;;;21.22;50.19
55418;BME280;41287;47.554;7.844;2023-10-08T10:15:28;98998.28;;;21.21;50.19
55418;BME280;41287;47.554;7.844;2023-10-08T10:17:59;98994.75;;;21.21;50.03
55418;BME280;41287;47.554;7.844;2023-10-08T10:20:32;98990.13;;;21.21;50.12
55418;BME280;41287;47.554;7.844;2023-10-08T10:23:12;98990.91;;;21.22;49.95
55418;BME280;41287;47.554;7.844;2023-10-08T10:25:46;98986.59;;;21.21;49.84
55418;BME280;41287;47.554;7.844;2023-10-08T10:30:39;98989.31;;;21.21;50.07
55418;BME280;41287;47.554;7.844;2023-10-08T10:33:04;98978.41;;;21.21;50.02
55418;BME280;41287;47.554;7.844;2023-10-08T10:35:31;98986.59;;;21.21;50.03
55418;BME280;41287;47.554;7.844;2023-10-08T10:37:58;98989.31;;;21.21;49.92
55418;BME280;41287;47.554;7.844;2023-10-08T10:40:28;98984.66;;;21.21;49.98
55418;BME280;41287;47.554;7.844;2023-10-08T10:43:07;98986.59;;;21.21;49.82
55418;BME280;41287;47.554;7.844;2023-10-08T10:45:36;98982.25;;;21.20;49.84
55418;BME280;41287;47.554;7.844;2023-10-08T10:48:03;98988.50;;;21.20;49.81
55418;BME280;41287;47.554;7.844;2023-10-08T10:50:46;98985.78;;;21.20;49.96
55418;BME280;41287;47.554;7.844;2023-10-08T10:53:38;98981.13;;;21.21;49.85
55418;BME280;41287;47.554;7.844;2023-10-08T10:56:18;98979.53;;;21.20;49.85
55418;BME280;41287;47.554;7.844;2023-10-08T10:58:58;98983.84;;;21.21;49.84
55418;BME280;41287;47.554;7.844;2023-10-08T11:01:28;98975.69;;;21.21;49.92
55418;BME280;41287;47.554;7.844;2023-10-08T11:04:09;98975.31;;;21.22;49.78
55418;BME280;41287;47.554;7.844;2023-10-08T11:06:42;98974.56;;;21.22;49.74
55418;BME280;41287;47.554;7.844;2023-10-08T11:09:10;98963.66;;;21.22;49.76
55418;BME280;41287;47.554;7.844;2023-10-08T11:11:41;98956.59;;;21.21;49.96
55418;BME280;41287;47.554;7.844;2023-10-08T11:14:12;98950.78;;;21.22;49.74
55418;BME280;41287;47.554;7.844;2023-10-08T11:16:44;98949.22;;;21.21;49.89
55418;BME280;41287;47.554;7.844;2023-10-08T11:19:10;98942.97;;;21.21;49.90
55418;BME280;41287;47.554;7.844;2023-10-08T11:21:50;98944.41;;;21.18;50.02
55418;BME280;41287;47.554;7.844;2023-10-08T11:24:27;98942.50;;;21.19;49.94
55418;BME280;41287;47.554;7.844;2023-10-08T11:26:53;98942.16;;;21.20;50.01
55418;BME280;41287;47.554;7.844;2023-10-08T11:29:37;98940.25;;;21.21;49.93
55418;BME280;41287;47.554;7.844;2023-10-08T11:32:04;98941.84;;;21.22;49.75
55418;BME280;41287;47.554;7.844;2023-10-08T11:34:32;98939.13;;;21.22;49.49
55418;BME280;41287;47.554;7.844;2023-10-08T11:37:04;98937.53;;;21.21;49.72
55418;BME280;41287;47.554;7.844;2023-10-08T11:39:39;98934.78;;;21.21;49.63
55418;BME280;41287;47.554;7.844;2023-10-08T11:42:10;98928.22;;;21.22;49.32
55418;BME280;41287;47.554;7.844;2023-10-08T11:44:54;98921.97;;;21.21;49.41
55418;BME280;41287;47.554;7.844;2023-10-08T11:47:20;98919.25;;;21.21;49.50
55418;BME280;41287;47.554;7.844;2023-10-08T11:49:48;98925.81;;;21.20;49.67
55418;BME280;41287;47.554;7.844;2023-10-08T11:52:19;98916.53;;;21.21;49.49
55418;BME280;41287;47.554;7.844;2023-10-08T11:54:47;98917.31;;;21.22;49.79
55418;BME280;41287;47.554;7.844;2023-10-08T11:57:14;98925.50;;;21.22;49.43
55418;BME280;41287;47.554;7.844;2023-10-08T11:59:39;98920.03;;;21.22;49.56
55418;BME280;41287;47.554;7.844;2023-10-08T12:02:08;98918.09;;;21.22;49.63
55418;BME280;41287;47.554;7.844;2023-10-08T12:04:33;98912.63;;;21.22;49.67
55418;BME280;41287;47.554;7.844;2023-10-08T12:07:01;98912.63;;;21.22;49.38
55418;BME280;41287;47.554;7.844;2023-10-08T12:09:32;98918.88;;;21.23;49.37
55418;BME280;41287;47.554;7.844;2023-10-08T12:12:05;98915.38;;;21.22;49.54
55418;BME280;41287;47.554;7.844;2023-10-08T12:14:35;98910.72;;;21.23;49.30
55418;BME280;41287;47.554;7.844;2023-10-08T12:17:03;98914.25;;;21.23;49.63
55418;BME280;41287;47.554;7.844;2023-10-08T12:19:37;98911.50;;;21.23;49.58
55418;BME280;41287;47.554;7.844;2023-10-08T12:22:05;98911.50;;;21.23;49.59
55418;BME280;41287;47.554;7.844;2023-10-08T12:24:32;98905.25;;;21.23;49.33
55418;BME280;41287;47.554;7.844;2023-10-08T12:26:58;98902.53;;;21.23;49.37
55418;BME280;41287;47.554;7.844;2023-10-08T12:29:24;98897.09;;;21.23;49.58
55418;BME280;41287;47.554;7.844;2023-10-08T12:31:50;98900.59;;;21.23;49.46
55418;BME280;41287;47.554;7.844;2023-10-08T12:34:18;98894.34;;;21.23;49.67
55418;BME280;41287;47.554;7.844;2023-10-08T12:36:44;98894.34;;;21.23;49.60
55418;BME280;41287;47.554;7.844;2023-10-08T12:39:11;98888.91;;;21.23;49.45
55418;BME280;41287;47.554;7.844;2023-10-08T12:41:42;98881.53;;;21.23;49.48
55418;BME280;41287;47.554;7.844;2023-10-08T12:44:09;98883.13;;;21.24;49.45
55418;BME280;41287;47.554;7.844;2023-10-08T12:46:34;98885.06;;;21.24;49.63
55418;BME280;41287;47.554;7.844;2023-10-08T12:49:00;98876.88;;;21.24;49.52
55418;BME280;41287;47.554;7.844;2023-10-08T12:51:27;98878.00;;;21.23;49.75
55418;BME280;41287;47.554;7.844;2023-10-08T12:53:57;98877.69;;;21.24;49.46
55418;BME280;41287;47.554;7.844;2023-10-08T12:56:32;98873.34;;;21.23;49.50
55418;BME280;41287;47.554;7.844;2023-10-08T12:59:05;98871.44;;;21.24;49.55
55418;BME280;41287;47.554;7.844;2023-10-08T13:01:40;98866.78;;;21.24;49.27
55418;BME280;41287;47.554;7.844;2023-10-08T13:04:06;98868.69;;;21.24;49.55
55418;BME280;41287;47.554;7.844;2023-10-08T13:06:41;98869.50;;;21.24;49.40
55418;BME280;41287;47.554;7.844;2023-10-08T13:09:10;98864.06;;;21.24;49.62
55418;BME280;41287;47.554;7.844;2023-10-08T13:11:40;98860.53;;;21.24;49.46
55418;BME280;41287;47.554;7.844;2023-10-08T13:14:06;98856.69;;;21.25;49.33
55418;BME280;41287;47.554;7.844;2023-10-08T13:16:31;98857.81;;;21.24;49.59
55418;BME280;41287;47.554;7.844;2023-10-08T13:18:58;98858.59;;;21.24;49.59
55418;BME280;41287;47.554;7.844;2023-10-08T13:21:24;98859.41;;;21.25;49.52